Seascale, United Kingdom
Current Conditions -  °F | °C
As of 4:20 PM on Saturday 25 Oct 2014 (Local Time) from EGNC Reporting Station
Rain Showers Rain Showers  
Wind Chill: 54°   Ceiling: Unl
Heat Index: 54°   Visibility: 6mi
Dew Point: 48°   Wind: 22mph
Humidity: 82%   Direction: 230°SW
Pressure: 29.77"   Gusts: 36mph
Location:  54.4°N, 3.48°W
Report Text: EGNC 251520Z 23019G31KT 9999 VCSH SCT024 SCT030 12/09 Q1008
Loading
Personal Weather Stations






























Interactive Weather Map New forecast layout! Learn more

10-Day Weather Forecast

Advertisements
Track Severe Weather on mobile